sensor_id;sensor_type;location;lat;lon;timestamp;temperature;humidity
3638;DHT22;1835;50.068;8.154;2022-07-29T00:00:22;18.10;99.90
3638;DHT22;1835;50.068;8.154;2022-07-29T00:02:50;18.20;99.90
3638;DHT22;1835;50.068;8.154;2022-07-29T00:05:18;18.20;99.90
3638;DHT22;1835;50.068;8.154;2022-07-29T00:07:47;18.30;99.90
3638;DHT22;1835;50.068;8.154;2022-07-29T00:10:15;18.20;99.90
3638;DHT22;1835;50.068;8.154;2022-07-29T00:12:44;18.20;99.90
3638;DHT22;1835;50.068;8.154;2022-07-29T00:15:12;18.20;99.90
3638;DHT22;1835;50.068;8.154;2022-07-29T00:17:41;17.90;99.90
3638;DHT22;1835;50.068;8.154;2022-07-29T00:20:09;17.90;99.90
3638;DHT22;1835;50.068;8.154;2022-07-29T00:22:38;18.00;99.90
3638;DHT22;1835;50.068;8.154;2022-07-29T00:25:08;17.90;99.90
3638;DHT22;1835;50.068;8.154;2022-07-29T00:27:36;18.00;99.90
3638;DHT22;1835;50.068;8.154;2022-07-29T00:30:06;18.10;99.90
3638;DHT22;1835;50.068;8.154;2022-07-29T00:32:35;18.00;99.90
3638;DHT22;1835;50.068;8.154;2022-07-29T00:35:04;18.00;99.90
3638;DHT22;1835;50.068;8.154;2022-07-29T00:37:50;18.10;99.90
3638;DHT22;1835;50.068;8.154;2022-07-29T00:40:20;18.00;99.90
3638;DHT22;1835;50.068;8.154;2022-07-29T00:42:50;18.20;99.90
3638;DHT22;1835;50.068;8.154;2022-07-29T00:45:19;18.10;99.90
3638;DHT22;1835;50.068;8.154;2022-07-29T00:47:48;18.10;99.90
3638;DHT22;1835;50.068;8.154;2022-07-29T00:50:16;18.00;99.90
3638;DHT22;1835;50.068;8.154;2022-07-29T00:52:45;18.00;99.90
3638;DHT22;1835;50.068;8.154;2022-07-29T00:55:15;17.90;99.90
3638;DHT22;1835;50.068;8.154;2022-07-29T00:57:45;17.80;99.90
3638;DHT22;1835;50.068;8.154;2022-07-29T01:00:16;17.90;99.90
3638;DHT22;1835;50.068;8.154;2022-07-29T01:02:46;18.00;99.90
3638;DHT22;1835;50.068;8.154;2022-07-29T01:05:17;17.90;99.90
3638;DHT22;1835;50.068;8.154;2022-07-29T01:07:52;17.80;99.90
3638;DHT22;1835;50.068;8.154;2022-07-29T01:10:22;17.90;99.90
3638;DHT22;1835;50.068;8.154;2022-07-29T01:12:54;17.90;99.90
3638;DHT22;1835;50.068;8.154;2022-07-29T01:15:23;17.90;99.90
3638;DHT22;1835;50.068;8.154;2022-07-29T01:17:57;18.00;99.90
3638;DHT22;1835;50.068;8.154;2022-07-29T01:20:43;18.00;99.90
3638;DHT22;1835;50.068;8.154;2022-07-29T01:23:49;17.90;99.90
3638;DHT22;1835;50.068;8.154;2022-07-29T01:26:33;17.80;99.90
3638;DHT22;1835;50.068;8.154;2022-07-29T01:29:12;17.90;99.90
3638;DHT22;1835;50.068;8.154;2022-07-29T01:31:48;17.70;99.90
3638;DHT22;1835;50.068;8.154;2022-07-29T01:34:30;17.70;99.90
3638;DHT22;1835;50.068;8.154;2022-07-29T01:37:06;17.60;99.90
3638;DHT22;1835;50.068;8.154;2022-07-29T01:39:38;17.70;99.90
3638;DHT22;1835;50.068;8.154;2022-07-29T01:42:12;17.70;99.90
3638;DHT22;1835;50.068;8.154;2022-07-29T01:44:53;17.60;99.90
3638;DHT22;1835;50.068;8.154;2022-07-29T01:47:28;17.70;99.90
3638;DHT22;1835;50.068;8.154;2022-07-29T01:50:05;17.60;99.90
3638;DHT22;1835;50.068;8.154;2022-07-29T01:52:39;17.40;99.90
3638;DHT22;1835;50.068;8.154;2022-07-29T01:55:13;17.30;99.90
3638;DHT22;1835;50.068;8.154;2022-07-29T01:57:45;17.20;99.90
3638;DHT22;1835;50.068;8.154;2022-07-29T02:00:18;17.20;99.90
3638;DHT22;1835;50.068;8.154;2022-07-29T02:02:47;17.10;99.90
3638;DHT22;1835;50.068;8.154;2022-07-29T02:05:18;17.10;99.90
3638;DHT22;1835;50.068;8.154;2022-07-29T02:07:49;17.20;99.90
3638;DHT22;1835;50.068;8.154;2022-07-29T02:10:21;17.00;99.90
3638;DHT22;1835;50.068;8.154;2022-07-29T02:12:53;17.00;99.90
3638;DHT22;1835;50.068;8.154;2022-07-29T02:15:24;17.00;99.90
3638;DHT22;1835;50.068;8.154;2022-07-29T02:17:56;16.80;99.90
3638;DHT22;1835;50.068;8.154;2022-07-29T02:20:28;16.70;99.90
3638;DHT22;1835;50.068;8.154;2022-07-29T02:22:59;16.50;99.90
3638;DHT22;1835;50.068;8.154;2022-07-29T02:25:28;16.50;99.90
3638;DHT22;1835;50.068;8.154;2022-07-29T02:28:04;16.50;99.90
3638;DHT22;1835;50.068;8.154;2022-07-29T02:30:36;16.40;99.90
3638;DHT22;1835;50.068;8.154;2022-07-29T02:33:08;16.30;99.90
3638;DHT22;1835;50.068;8.154;2022-07-29T02:35:38;16.30;99.90
3638;DHT22;1835;50.068;8.154;2022-07-29T02:38:08;16.20;99.90
3638;DHT22;1835;50.068;8.154;2022-07-29T02:40:55;16.20;99.90
3638;DHT22;1835;50.068;8.154;2022-07-29T02:43:26;16.20;99.90
3638;DHT22;1835;50.068;8.154;2022-07-29T02:45:56;16.30;99.90
3638;DHT22;1835;50.068;8.154;2022-07-29T02:48:32;16.30;99.90
3638;DHT22;1835;50.068;8.154;2022-07-29T02:51:08;16.40;99.90
3638;DHT22;1835;50.068;8.154;2022-07-29T02:54:04;16.40;99.90
3638;DHT22;1835;50.068;8.154;2022-07-29T02:56:36;16.30;99.90
3638;DHT22;1835;50.068;8.154;2022-07-29T02:59:09;16.30;99.90
3638;DHT22;1835;50.068;8.154;2022-07-29T03:01:42;16.30;99.90
3638;DHT22;1835;50.068;8.154;2022-07-29T03:04:12;16.20;99.90
3638;DHT22;1835;50.068;8.154;2022-07-29T03:06:43;16.20;99.90
3638;DHT22;1835;50.068;8.154;2022-07-29T03:09:13;16.30;99.90
3638;DHT22;1835;50.068;8.154;2022-07-29T03:11:42;16.30;99.90
3638;DHT22;1835;50.068;8.154;2022-07-29T03:14:17;16.30;99.90
3638;DHT22;1835;50.068;8.154;2022-07-29T03:16:49;16.30;99.90
3638;DHT22;1835;50.068;8.154;2022-07-29T03:19:19;16.30;99.90
3638;DHT22;1835;50.068;8.154;2022-07-29T03:21:47;16.30;99.90
3638;DHT22;1835;50.068;8.154;2022-07-29T03:24:30;16.40;99.90
3638;DHT22;1835;50.068;8.154;2022-07-29T03:26:59;16.50;99.90
3638;DHT22;1835;50.068;8.154;2022-07-29T03:29:28;16.40;99.90
3638;DHT22;1835;50.068;8.154;2022-07-29T03:32:02;16.40;99.90
3638;DHT22;1835;50.068;8.154;2022-07-29T03:34:33;16.30;99.90
3638;DHT22;1835;50.068;8.154;2022-07-29T03:37:01;16.20;99.90
3638;DHT22;1835;50.068;8.154;2022-07-29T03:39:33;16.20;99.90
3638;DHT22;1835;50.068;8.154;2022-07-29T03:42:05;16.20;99.90
3638;DHT22;1835;50.068;8.154;2022-07-29T03:44:36;16.20;99.90
3638;DHT22;1835;50.068;8.154;2022-07-29T03:47:08;16.20;99.90
3638;DHT22;1835;50.068;8.154;2022-07-29T03:49:38;16.20;99.90
3638;DHT22;1835;50.068;8.154;2022-07-29T03:52:07;16.20;99.90
3638;DHT22;1835;50.068;8.154;2022-07-29T03:54:35;16.20;99.90
3638;DHT22;1835;50.068;8.154;2022-07-29T03:57:05;16.30;99.90
3638;DHT22;1835;50.068;8.154;2022-07-29T03:59:34;16.40;99.90
3638;DHT22;1835;50.068;8.154;2022-07-29T04:02:04;16.50;99.90
3638;DHT22;1835;50.068;8.154;2022-07-29T04:04:34;16.50;99.90
3638;DHT22;1835;50.068;8.154;2022-07-29T04:07:03;16.40;99.90
3638;DHT22;1835;50.068;8.154;2022-07-29T04:09:32;16.40;99.90
3638;DHT22;1835;50.068;8.154;2022-07-29T04:12:00;16.30;99.90
3638;DHT22;1835;50.068;8.154;2022-07-29T04:14:30;16.40;99.90
3638;DHT22;1835;50.068;8.154;2022-07-29T04:16:59;16.20;99.90
3638;DHT22;1835;50.068;8.154;2022-07-29T04:19:29;16.00;99.90
3638;DHT22;1835;50.068;8.154;2022-07-29T04:21:58;16.00;99.90
3638;DHT22;1835;50.068;8.154;2022-07-29T04:24:27;16.00;99.90
3638;DHT22;1835;50.068;8.154;2022-07-29T04:26:56;16.00;99.90
3638;DHT22;1835;50.068;8.154;2022-07-29T04:29:24;16.00;99.90
3638;DHT22;1835;50.068;8.154;2022-07-29T04:31:52;16.10;99.90
3638;DHT22;1835;50.068;8.154;2022-07-29T04:34:20;16.20;99.90
3638;DHT22;1835;50.068;8.154;2022-07-29T04:36:55;16.20;99.90
3638;DHT22;1835;50.068;8.154;2022-07-29T04:39:23;16.10;99.90
3638;DHT22;1835;50.068;8.154;2022-07-29T04:41:55;16.10;99.90
3638;DHT22;1835;50.068;8.154;2022-07-29T04:44:24;16.10;99.90
3638;DHT22;1835;50.068;8.154;2022-07-29T04:46:55;16.30;99.90
3638;DHT22;1835;50.068;8.154;2022-07-29T04:49:24;16.40;99.90
3638;DHT22;1835;50.068;8.154;2022-07-29T04:51:52;16.50;99.90
3638;DHT22;1835;50.068;8.154;2022-07-29T04:54:22;16.40;99.90
3638;DHT22;1835;50.068;8.154;2022-07-29T04:56:52;16.40;99.90
3638;DHT22;1835;50.068;8.154;2022-07-29T04:59:20;16.40;99.90
3638;DHT22;1835;50.068;8.154;2022-07-29T05:01:48;16.40;99.90
3638;DHT22;1835;50.068;8.154;2022-07-29T05:04:16;16.40;99.90
3638;DHT22;1835;50.068;8.154;2022-07-29T05:06:45;16.50;99.90
3638;DHT22;1835;50.068;8.154;2022-07-29T05:09:15;16.60;99.90
3638;DHT22;1835;50.068;8.154;2022-07-29T05:11:43;16.50;99.90
3638;DHT22;1835;50.068;8.154;2022-07-29T05:14:11;16.70;99.90
3638;DHT22;1835;50.068;8.154;2022-07-29T05:16:40;16.70;99.90
3638;DHT22;1835;50.068;8.154;2022-07-29T05:19:08;16.80;99.90
3638;DHT22;1835;50.068;8.154;2022-07-29T05:21:40;16.90;99.90
3638;DHT22;1835;50.068;8.154;2022-07-29T05:24:09;16.90;99.90
3638;DHT22;1835;50.068;8.154;2022-07-29T05:26:38;16.80;99.90
3638;DHT22;1835;50.068;8.154;2022-07-29T05:29:07;16.90;99.90
3638;DHT22;1835;50.068;8.154;2022-07-29T05:31:56;17.00;99.90
3638;DHT22;1835;50.068;8.154;2022-07-29T05:34:24;17.10;99.90
3638;DHT22;1835;50.068;8.154;2022-07-29T05:36:52;17.10;99.90
3638;DHT22;1835;50.068;8.154;2022-07-29T05:39:20;17.10;99.90
3638;DHT22;1835;50.068;8.154;2022-07-29T05:42:10;17.20;99.90
3638;DHT22;1835;50.068;8.154;2022-07-29T05:44:38;17.30;99.90
3638;DHT22;1835;50.068;8.154;2022-07-29T05:47:07;17.30;99.90
3638;DHT22;1835;50.068;8.154;2022-07-29T05:49:35;17.30;99.90
3638;DHT22;1835;50.068;8.154;2022-07-29T05:52:04;17.30;99.90
3638;DHT22;1835;50.068;8.154;2022-07-29T05:54:32;17.20;99.90
3638;DHT22;1835;50.068;8.154;2022-07-29T05:57:00;17.10;99.90
3638;DHT22;1835;50.068;8.154;2022-07-29T05:59:30;17.40;99.90
3638;DHT22;1835;50.068;8.154;2022-07-29T06:01:58;17.90;99.90
3638;DHT22;1835;50.068;8.154;2022-07-29T06:04:26;18.70;99.90
3638;DHT22;1835;50.068;8.154;2022-07-29T06:06:54;19.30;99.90
3638;DHT22;1835;50.068;8.154;2022-07-29T06:09:22;19.90;99.90
3638;DHT22;1835;50.068;8.154;2022-07-29T06:11:51;20.50;99.90
3638;DHT22;1835;50.068;8.154;2022-07-29T06:14:19;21.10;99.90
3638;DHT22;1835;50.068;8.154;2022-07-29T06:16:48;21.70;99.90
3638;DHT22;1835;50.068;8.154;2022-07-29T06:19:16;22.10;99.90
3638;DHT22;1835;50.068;8.154;2022-07-29T06:21:46;22.60;99.90
3638;DHT22;1835;50.068;8.154;2022-07-29T06:24:15;23.00;99.90
3638;DHT22;1835;50.068;8.154;2022-07-29T06:26:44;23.40;99.90
3638;DHT22;1835;50.068;8.154;2022-07-29T06:29:13;23.90;99.90
3638;DHT22;1835;50.068;8.154;2022-07-29T06:31:41;24.50;99.90
3638;DHT22;1835;50.068;8.154;2022-07-29T06:34:10;24.80;99.90
3638;DHT22;1835;50.068;8.154;2022-07-29T06:36:39;25.00;99.90
3638;DHT22;1835;50.068;8.154;2022-07-29T06:39:08;25.10;99.90
3638;DHT22;1835;50.068;8.154;2022-07-29T06:41:39;25.10;99.90
3638;DHT22;1835;50.068;8.154;2022-07-29T06:44:07;24.50;99.90
3638;DHT22;1835;50.068;8.154;2022-07-29T06:46:35;24.70;99.90
3638;DHT22;1835;50.068;8.154;2022-07-29T06:49:03;25.10;99.90
3638;DHT22;1835;50.068;8.154;2022-07-29T06:51:33;25.10;99.90
3638;DHT22;1835;50.068;8.154;2022-07-29T06:54:01;25.40;99.90
3638;DHT22;1835;50.068;8.154;2022-07-29T06:56:33;25.30;99.90
3638;DHT22;1835;50.068;8.154;2022-07-29T06:59:06;25.30;99.90
3638;DHT22;1835;50.068;8.154;2022-07-29T07:01:35;25.00;99.90
3638;DHT22;1835;50.068;8.154;2022-07-29T07:04:04;24.60;99.90
3638;DHT22;1835;50.068;8.154;2022-07-29T07:06:34;24.30;99.90
3638;DHT22;1835;50.068;8.154;2022-07-29T07:09:02;24.20;99.90
3638;DHT22;1835;50.068;8.154;2022-07-29T07:11:31;24.30;99.90
3638;DHT22;1835;50.068;8.154;2022-07-29T07:13:59;24.30;99.90
3638;DHT22;1835;50.068;8.154;2022-07-29T07:16:30;24.10;99.90
3638;DHT22;1835;50.068;8.154;2022-07-29T07:18:58;24.00;99.90
3638;DHT22;1835;50.068;8.154;2022-07-29T07:21:27;23.70;99.90
3638;DHT22;1835;50.068;8.154;2022-07-29T07:23:58;23.70;99.90
3638;DHT22;1835;50.068;8.154;2022-07-29T07:26:27;24.60;99.90
3638;DHT22;1835;50.068;8.154;2022-07-29T07:28:55;25.90;99.90
3638;DHT22;1835;50.068;8.154;2022-07-29T07:31:24;26.70;99.90
3638;DHT22;1835;50.068;8.154;2022-07-29T07:33:52;27.30;99.90
3638;DHT22;1835;50.068;8.154;2022-07-29T07:36:21;27.70;99.90
3638;DHT22;1835;50.068;8.154;2022-07-29T07:38:49;28.10;99.90
3638;DHT22;1835;50.068;8.154;2022-07-29T07:41:19;28.50;99.90
3638;DHT22;1835;50.068;8.154;2022-07-29T07:43:47;28.60;99.90
3638;DHT22;1835;50.068;8.154;2022-07-29T07:46:16;28.60;99.90
3638;DHT22;1835;50.068;8.154;2022-07-29T07:48:44;28.80;99.90
3638;DHT22;1835;50.068;8.154;2022-07-29T07:51:12;29.10;99.90
3638;DHT22;1835;50.068;8.154;2022-07-29T07:53:40;29.30;99.90
3638;DHT22;1835;50.068;8.154;2022-07-29T07:56:09;29.50;99.90
3638;DHT22;1835;50.068;8.154;2022-07-29T07:58:40;29.70;99.90
3638;DHT22;1835;50.068;8.154;2022-07-29T08:01:08;30.30;89.00
3638;DHT22;1835;50.068;8.154;2022-07-29T08:03:36;30.80;86.80
3638;DHT22;1835;50.068;8.154;2022-07-29T08:06:05;30.90;93.70
3638;DHT22;1835;50.068;8.154;2022-07-29T08:08:34;31.10;91.20
3638;DHT22;1835;50.068;8.154;2022-07-29T08:11:02;31.70;73.80
3638;DHT22;1835;50.068;8.154;2022-07-29T08:13:36;31.90;64.70
3638;DHT22;1835;50.068;8.154;2022-07-29T08:16:07;31.50;67.30
3638;DHT22;1835;50.068;8.154;2022-07-29T08:18:43;31.20;60.10
3638;DHT22;1835;50.068;8.154;2022-07-29T08:21:13;30.50;71.00
3638;DHT22;1835;50.068;8.154;2022-07-29T08:23:42;30.80;63.70
3638;DHT22;1835;50.068;8.154;2022-07-29T08:26:26;29.40;78.60
3638;DHT22;1835;50.068;8.154;2022-07-29T08:28:54;28.70;96.20
3638;DHT22;1835;50.068;8.154;2022-07-29T08:31:24;28.30;99.90
3638;DHT22;1835;50.068;8.154;2022-07-29T08:33:52;28.60;96.10
3638;DHT22;1835;50.068;8.154;2022-07-29T08:36:20;29.10;90.60
3638;DHT22;1835;50.068;8.154;2022-07-29T08:38:48;29.70;90.40
3638;DHT22;1835;50.068;8.154;2022-07-29T08:41:17;30.30;76.70
3638;DHT22;1835;50.068;8.154;2022-07-29T08:43:46;31.30;66.30
3638;DHT22;1835;50.068;8.154;2022-07-29T08:46:15;32.20;68.10
3638;DHT22;1835;50.068;8.154;2022-07-29T08:48:45;33.00;60.30
3638;DHT22;1835;50.068;8.154;2022-07-29T08:51:15;33.70;59.30
3638;DHT22;1835;50.068;8.154;2022-07-29T08:53:47;34.60;52.50
3638;DHT22;1835;50.068;8.154;2022-07-29T08:56:16;35.10;49.50
3638;DHT22;1835;50.068;8.154;2022-07-29T08:58:46;35.20;49.40
3638;DHT22;1835;50.068;8.154;2022-07-29T09:01:22;35.40;46.90
3638;DHT22;1835;50.068;8.154;2022-07-29T09:04:07;35.10;48.00
3638;DHT22;1835;50.068;8.154;2022-07-29T09:06:42;36.40;44.00
3638;DHT22;1835;50.068;8.154;2022-07-29T09:09:14;36.00;44.90
3638;DHT22;1835;50.068;8.154;2022-07-29T09:11:43;35.60;46.60
3638;DHT22;1835;50.068;8.154;2022-07-29T09:14:12;34.10;49.10
3638;DHT22;1835;50.068;8.154;2022-07-29T09:16:45;33.50;50.00
3638;DHT22;1835;50.068;8.154;2022-07-29T09:19:30;33.40;50.60
3638;DHT22;1835;50.068;8.154;2022-07-29T09:22:03;34.20;49.90
3638;DHT22;1835;50.068;8.154;2022-07-29T09:24:41;34.60;48.50
3638;DHT22;1835;50.068;8.154;2022-07-29T09:27:18;35.00;46.20
3638;DHT22;1835;50.068;8.154;2022-07-29T09:29:55;35.30;46.30
3638;DHT22;1835;50.068;8.154;2022-07-29T09:32:25;35.20;46.00
3638;DHT22;1835;50.068;8.154;2022-07-29T09:35:18;35.80;49.20
3638;DHT22;1835;50.068;8.154;2022-07-29T09:37:48;35.60;44.80
3638;DHT22;1835;50.068;8.154;2022-07-29T09:40:18;36.10;44.80
3638;DHT22;1835;50.068;8.154;2022-07-29T09:42:47;36.10;43.70
3638;DHT22;1835;50.068;8.154;2022-07-29T09:45:27;36.00;44.50
3638;DHT22;1835;50.068;8.154;2022-07-29T09:47:57;36.50;43.40
3638;DHT22;1835;50.068;8.154;2022-07-29T09:50:39;35.00;45.10
3638;DHT22;1835;50.068;8.154;2022-07-29T09:53:08;34.20;48.50
3638;DHT22;1835;50.068;8.154;2022-07-29T09:55:47;33.20;49.70
3638;DHT22;1835;50.068;8.154;2022-07-29T09:58:18;32.20;51.20
3638;DHT22;1835;50.068;8.154;2022-07-29T10:00:48;31.90;51.00
3638;DHT22;1835;50.068;8.154;2022-07-29T10:03:18;31.90;50.90
3638;DHT22;1835;50.068;8.154;2022-07-29T10:06:04;32.10;53.60
3638;DHT22;1835;50.068;8.154;2022-07-29T10:08:34;31.90;51.30
3638;DHT22;1835;50.068;8.154;2022-07-29T10:11:10;32.30;52.50
3638;DHT22;1835;50.068;8.154;2022-07-29T10:13:41;33.00;54.10
3638;DHT22;1835;50.068;8.154;2022-07-29T10:16:11;33.60;51.00
3638;DHT22;1835;50.068;8.154;2022-07-29T10:18:41;33.30;49.40
3638;DHT22;1835;50.068;8.154;2022-07-29T10:21:12;33.60;53.00
3638;DHT22;1835;50.068;8.154;2022-07-29T10:24:01;33.60;50.80
3638;DHT22;1835;50.068;8.154;2022-07-29T10:26:29;33.80;52.00
3638;DHT22;1835;50.068;8.154;2022-07-29T10:28:58;33.70;49.40
3638;DHT22;1835;50.068;8.154;2022-07-29T10:31:29;33.70;50.20
3638;DHT22;1835;50.068;8.154;2022-07-29T10:34:16;33.10;52.20
3638;DHT22;1835;50.068;8.154;2022-07-29T10:36:59;33.10;52.20
3638;DHT22;1835;50.068;8.154;2022-07-29T10:39:40;33.30;49.20
3638;DHT22;1835;50.068;8.154;2022-07-29T10:42:18;33.70;49.60
3638;DHT22;1835;50.068;8.154;2022-07-29T10:45:00;33.60;49.10
3638;DHT22;1835;50.068;8.154;2022-07-29T10:47:31;33.10;50.60
3638;DHT22;1835;50.068;8.154;2022-07-29T10:50:02;33.00;48.80
3638;DHT22;1835;50.068;8.154;2022-07-29T10:52:54;32.50;51.10
3638;DHT22;1835;50.068;8.154;2022-07-29T10:55:34;33.10;51.90
3638;DHT22;1835;50.068;8.154;2022-07-29T10:58:13;32.90;50.70
3638;DHT22;1835;50.068;8.154;2022-07-29T11:01:28;32.00;50.20
3638;DHT22;1835;50.068;8.154;2022-07-29T11:04:05;31.30;52.70
3638;DHT22;1835;50.068;8.154;2022-07-29T11:09:36;30.60;53.90
3638;DHT22;1835;50.068;8.154;2022-07-29T11:15:15;30.70;57.20
3638;DHT22;1835;50.068;8.154;2022-07-29T11:18:07;30.40;55.20
3638;DHT22;1835;50.068;8.154;2022-07-29T11:20:44;30.20;55.30
3638;DHT22;1835;50.068;8.154;2022-07-29T11:23:20;30.10;55.60
3638;DHT22;1835;50.068;8.154;2022-07-29T11:26:14;29.70;55.30
3638;DHT22;1835;50.068;8.154;2022-07-29T11:29:11;29.60;56.40
3638;DHT22;1835;50.068;8.154;2022-07-29T11:31:46;29.60;56.40
3638;DHT22;1835;50.068;8.154;2022-07-29T11:34:21;29.30;56.60
3638;DHT22;1835;50.068;8.154;2022-07-29T11:37:21;29.30;58.70
3638;DHT22;1835;50.068;8.154;2022-07-29T11:40:15;29.30;57.70
3638;DHT22;1835;50.068;8.154;2022-07-29T11:42:46;29.30;57.10
3638;DHT22;1835;50.068;8.154;2022-07-29T11:45:20;29.20;57.10
3638;DHT22;1835;50.068;8.154;2022-07-29T11:48:16;29.00;57.20
3638;DHT22;1835;50.068;8.154;2022-07-29T11:50:58;28.90;58.00
3638;DHT22;1835;50.068;8.154;2022-07-29T11:53:28;28.90;58.60
3638;DHT22;1835;50.068;8.154;2022-07-29T11:55:59;28.90;58.90
3638;DHT22;1835;50.068;8.154;2022-07-29T11:58:30;28.70;58.60
3638;DHT22;1835;50.068;8.154;2022-07-29T12:00:59;28.70;59.00
3638;DHT22;1835;50.068;8.154;2022-07-29T12:03:31;28.60;58.50
3638;DHT22;1835;50.068;8.154;2022-07-29T12:06:02;28.80;60.80
3638;DHT22;1835;50.068;8.154;2022-07-29T12:08:40;29.00;58.70
3638;DHT22;1835;50.068;8.154;2022-07-29T12:11:16;29.10;57.80
3638;DHT22;1835;50.068;8.154;2022-07-29T12:13:49;29.10;57.60
3638;DHT22;1835;50.068;8.154;2022-07-29T12:16:18;29.30;58.70
3638;DHT22;1835;50.068;8.154;2022-07-29T12:18:56;29.20;58.20
3638;DHT22;1835;50.068;8.154;2022-07-29T12:21:25;29.30;58.50
3638;DHT22;1835;50.068;8.154;2022-07-29T12:23:55;29.10;58.10
3638;DHT22;1835;50.068;8.154;2022-07-29T12:26:32;29.30;58.60
3638;DHT22;1835;50.068;8.154;2022-07-29T12:29:03;29.20;57.80
3638;DHT22;1835;50.068;8.154;2022-07-29T12:31:37;29.20;57.70
3638;DHT22;1835;50.068;8.154;2022-07-29T12:34:10;29.10;58.20
3638;DHT22;1835;50.068;8.154;2022-07-29T12:36:40;29.00;57.60
3638;DHT22;1835;50.068;8.154;2022-07-29T12:39:10;29.10;57.90
3638;DHT22;1835;50.068;8.154;2022-07-29T12:41:39;28.90;57.10
3638;DHT22;1835;50.068;8.154;2022-07-29T12:44:08;28.90;57.20
3638;DHT22;1835;50.068;8.154;2022-07-29T12:46:36;28.90;58.10
3638;DHT22;1835;50.068;8.154;2022-07-29T12:49:05;29.10;59.30
3638;DHT22;1835;50.068;8.154;2022-07-29T12:51:36;28.70;62.70
3638;DHT22;1835;50.068;8.154;2022-07-29T12:54:06;28.20;64.50
3638;DHT22;1835;50.068;8.154;2022-07-29T12:56:38;28.10;67.10
3638;DHT22;1835;50.068;8.154;2022-07-29T12:59:15;28.00;69.90
3638;DHT22;1835;50.068;8.154;2022-07-29T13:01:46;28.20;70.40
3638;DHT22;1835;50.068;8.154;2022-07-29T13:04:26;28.30;69.90
3638;DHT22;1835;50.068;8.154;2022-07-29T13:06:59;28.30;69.90
3638;DHT22;1835;50.068;8.154;2022-07-29T13:09:41;28.30;71.40
3638;DHT22;1835;50.068;8.154;2022-07-29T13:12:11;28.50;72.10
3638;DHT22;1835;50.068;8.154;2022-07-29T13:14:42;28.60;70.80
3638;DHT22;1835;50.068;8.154;2022-07-29T13:17:13;28.40;68.80
3638;DHT22;1835;50.068;8.154;2022-07-29T13:19:43;28.60;70.10
3638;DHT22;1835;50.068;8.154;2022-07-29T13:22:14;28.90;68.80
3638;DHT22;1835;50.068;8.154;2022-07-29T13:24:51;29.00;66.90
3638;DHT22;1835;50.068;8.154;2022-07-29T13:27:22;28.90;67.30
3638;DHT22;1835;50.068;8.154;2022-07-29T13:29:53;28.80;68.10
3638;DHT22;1835;50.068;8.154;2022-07-29T13:32:23;28.90;67.90
3638;DHT22;1835;50.068;8.154;2022-07-29T13:34:54;28.80;68.70
3638;DHT22;1835;50.068;8.154;2022-07-29T13:37:23;28.80;70.00
3638;DHT22;1835;50.068;8.154;2022-07-29T13:39:52;29.00;72.00
3638;DHT22;1835;50.068;8.154;2022-07-29T13:42:23;28.90;70.10
3638;DHT22;1835;50.068;8.154;2022-07-29T13:44:53;28.40;69.10
3638;DHT22;1835;50.068;8.154;2022-07-29T13:47:21;28.40;69.50
3638;DHT22;1835;50.068;8.154;2022-07-29T13:49:59;28.50;72.10
3638;DHT22;1835;50.068;8.154;2022-07-29T13:52:27;28.70;70.80
3638;DHT22;1835;50.068;8.154;2022-07-29T13:54:55;28.90;70.20
3638;DHT22;1835;50.068;8.154;2022-07-29T13:57:24;28.80;70.80
3638;DHT22;1835;50.068;8.154;2022-07-29T13:59:53;28.70;69.00
3638;DHT22;1835;50.068;8.154;2022-07-29T14:02:22;28.60;69.10
3638;DHT22;1835;50.068;8.154;2022-07-29T14:04:51;28.70;72.20
3638;DHT22;1835;50.068;8.154;2022-07-29T14:07:20;28.80;71.30
3638;DHT22;1835;50.068;8.154;2022-07-29T14:09:49;28.80;71.10
3638;DHT22;1835;50.068;8.154;2022-07-29T14:12:17;28.70;69.90
3638;DHT22;1835;50.068;8.154;2022-07-29T14:14:45;28.50;69.90
3638;DHT22;1835;50.068;8.154;2022-07-29T14:17:15;28.60;71.80
3638;DHT22;1835;50.068;8.154;2022-07-29T14:19:43;28.60;70.60
3638;DHT22;1835;50.068;8.154;2022-07-29T14:22:11;28.60;71.30
3638;DHT22;1835;50.068;8.154;2022-07-29T14:24:39;28.60;71.00
3638;DHT22;1835;50.068;8.154;2022-07-29T14:27:08;28.60;70.40
3638;DHT22;1835;50.068;8.154;2022-07-29T14:29:37;28.60;72.30
3638;DHT22;1835;50.068;8.154;2022-07-29T14:32:05;28.70;71.00
3638;DHT22;1835;50.068;8.154;2022-07-29T14:34:36;28.70;71.50
3638;DHT22;1835;50.068;8.154;2022-07-29T14:37:05;28.70;72.90
3638;DHT22;1835;50.068;8.154;2022-07-29T14:39:34;28.70;74.00
3638;DHT22;1835;50.068;8.154;2022-07-29T14:42:08;28.70;74.60
3638;DHT22;1835;50.068;8.154;2022-07-29T14:44:38;28.50;76.00
3638;DHT22;1835;50.068;8.154;2022-07-29T14:47:08;28.30;76.80
3638;DHT22;1835;50.068;8.154;2022-07-29T14:49:38;28.20;80.00
3638;DHT22;1835;50.068;8.154;2022-07-29T14:52:06;27.80;82.80
3638;DHT22;1835;50.068;8.154;2022-07-29T14:54:34;27.30;82.50
3638;DHT22;1835;50.068;8.154;2022-07-29T14:57:05;26.80;83.80
3638;DHT22;1835;50.068;8.154;2022-07-29T14:59:33;26.60;86.10
3638;DHT22;1835;50.068;8.154;2022-07-29T15:02:02;26.20;92.60
3638;DHT22;1835;50.068;8.154;2022-07-29T15:04:30;25.90;97.00
3638;DHT22;1835;50.068;8.154;2022-07-29T15:07:00;25.50;99.90
3638;DHT22;1835;50.068;8.154;2022-07-29T15:09:28;25.20;99.90
3638;DHT22;1835;50.068;8.154;2022-07-29T15:11:56;25.00;99.90
3638;DHT22;1835;50.068;8.154;2022-07-29T15:14:24;25.10;99.90
3638;DHT22;1835;50.068;8.154;2022-07-29T15:16:52;25.50;99.90
3638;DHT22;1835;50.068;8.154;2022-07-29T15:19:21;25.00;99.90
3638;DHT22;1835;50.068;8.154;2022-07-29T15:21:49;24.90;99.90
3638;DHT22;1835;50.068;8.154;2022-07-29T15:24:21;25.00;99.90
3638;DHT22;1835;50.068;8.154;2022-07-29T15:26:49;25.00;99.90
3638;DHT22;1835;50.068;8.154;2022-07-29T15:29:17;25.10;99.90
3638;DHT22;1835;50.068;8.154;2022-07-29T15:31:45;24.70;99.90
3638;DHT22;1835;50.068;8.154;2022-07-29T15:34:13;24.70;99.90
3638;DHT22;1835;50.068;8.154;2022-07-29T15:36:41;24.60;99.90
3638;DHT22;1835;50.068;8.154;2022-07-29T15:39:20;24.40;99.90
3638;DHT22;1835;50.068;8.154;2022-07-29T15:41:49;24.40;99.90
3638;DHT22;1835;50.068;8.154;2022-07-29T15:44:18;24.50;99.90
3638;DHT22;1835;50.068;8.154;2022-07-29T15:46:46;24.60;99.90
3638;DHT22;1835;50.068;8.154;2022-07-29T15:49:35;24.60;99.90
3638;DHT22;1835;50.068;8.154;2022-07-29T15:52:16;24.60;99.90
3638;DHT22;1835;50.068;8.154;2022-07-29T15:54:54;24.70;99.90
3638;DHT22;1835;50.068;8.154;2022-07-29T15:57:23;24.80;99.90
3638;DHT22;1835;50.068;8.154;2022-07-29T15:59:52;24.90;99.90
3638;DHT22;1835;50.068;8.154;2022-07-29T16:02:20;25.00;99.90
3638;DHT22;1835;50.068;8.154;2022-07-29T16:04:48;25.20;99.90
3638;DHT22;1835;50.068;8.154;2022-07-29T16:07:16;25.30;99.90
3638;DHT22;1835;50.068;8.154;2022-07-29T16:09:45;25.40;99.90
3638;DHT22;1835;50.068;8.154;2022-07-29T16:12:20;25.40;99.90
3638;DHT22;1835;50.068;8.154;2022-07-29T16:14:48;25.30;99.90
3638;DHT22;1835;50.068;8.154;2022-07-29T16:17:19;24.90;99.90
3638;DHT22;1835;50.068;8.154;2022-07-29T16:19:47;24.80;99.90
3638;DHT22;1835;50.068;8.154;2022-07-29T16:22:15;24.50;99.90
3638;DHT22;1835;50.068;8.154;2022-07-29T16:24:44;24.40;99.90
3638;DHT22;1835;50.068;8.154;2022-07-29T16:27:12;24.20;99.90
3638;DHT22;1835;50.068;8.154;2022-07-29T16:29:42;24.20;99.90
3638;DHT22;1835;50.068;8.154;2022-07-29T16:32:12;23.90;99.90
3638;DHT22;1835;50.068;8.154;2022-07-29T16:34:48;23.90;99.90
3638;DHT22;1835;50.068;8.154;2022-07-29T16:37:16;23.70;99.90